createdAt,value
2023-05-10T00:00:19.819Z,97556.13
2023-05-10T00:01:21.438Z,97551.78
2023-05-10T00:02:23.071Z,97547.41
2023-05-10T00:03:24.897Z,97545.41
2023-05-10T00:04:28.461Z,97546.59
2023-05-10T00:05:30.084Z,97544.19
2023-05-10T00:06:32.494Z,97551.47
2023-05-10T00:07:34.023Z,97545.19
2023-05-10T00:08:35.617Z,97540.00
2023-05-10T00:09:37.157Z,97541.13
2023-05-10T00:10:38.732Z,97532.41
2023-05-10T00:11:40.245Z,97543.78
2023-05-10T00:12:41.841Z,97542.44
2023-05-10T00:13:43.430Z,97543.38
2023-05-10T00:14:44.966Z,97542.06
2023-05-10T00:15:46.490Z,97544.00
2023-05-10T00:16:48.144Z,97546.72
2023-05-10T00:17:49.795Z,97543.19
2023-05-10T00:18:51.466Z,97533.84
2023-05-10T00:19:53.161Z,97539.63
2023-05-10T00:20:54.782Z,97530.81
2023-05-10T00:21:56.446Z,97541.84
2023-05-10T00:22:57.979Z,97537.81
2023-05-10T00:23:59.597Z,97538.94
2023-05-10T00:25:01.166Z,97545.19
2023-05-10T00:26:02.987Z,97542.78
2023-05-10T00:27:05.032Z,97526.69
2023-05-10T00:28:06.634Z,97546.22
2023-05-10T00:29:08.321Z,97540.94
2023-05-10T00:30:10.005Z,97538.03
2023-05-10T00:31:11.573Z,97535.78
2023-05-10T00:32:15.006Z,97534.06
2023-05-10T00:33:16.786Z,97524.34
2023-05-10T00:34:18.404Z,97540.34
2023-05-10T00:35:20.048Z,97542.56
2023-05-10T00:36:22.196Z,97530.00
2023-05-10T00:37:23.788Z,97539.00
2023-05-10T00:38:25.855Z,97523.31
2023-05-10T00:39:29.615Z,97533.66
2023-05-10T00:40:31.608Z,97539.13
2023-05-10T00:41:33.745Z,97541.03
2023-05-10T00:42:35.307Z,97527.28
2023-05-10T00:43:37.107Z,97535.78
2023-05-10T00:44:38.742Z,97536.84
2023-05-10T00:45:40.958Z,97520.81
2023-05-10T00:46:42.868Z,97537.16
2023-05-10T00:47:44.574Z,97533.59
2023-05-10T00:48:46.653Z,97528.22
2023-05-10T00:49:48.169Z,97535.13
2023-05-10T00:50:49.769Z,97526.59
2023-05-10T00:51:51.286Z,97521.38
2023-05-10T00:52:53.038Z,97535.88
2023-05-10T00:53:54.820Z,97530.97
2023-05-10T00:54:56.364Z,97529.75
2023-05-10T00:55:57.924Z,97523.06
2023-05-10T00:56:59.770Z,97532.94
2023-05-10T00:58:01.653Z,97523.28
2023-05-10T00:59:03.233Z,97534.78
2023-05-10T01:00:05.564Z,97534.13
2023-05-10T01:01:07.197Z,97530.66
2023-05-10T01:02:08.800Z,97535.31
2023-05-10T01:03:12.786Z,97514.91
2023-05-10T01:04:14.756Z,97524.44
2023-05-10T01:05:16.407Z,97539.66
2023-05-10T01:06:17.997Z,97539.19
2023-05-10T01:07:19.704Z,97536.63
2023-05-10T01:08:21.747Z,97537.63
2023-05-10T01:09:23.403Z,97536.69
2023-05-10T01:10:24.991Z,97536.34
2023-05-10T01:11:26.756Z,97533.75
2023-05-10T01:12:28.439Z,97538.88
2023-05-10T01:13:38.393Z,97535.81
2023-05-10T01:14:40.029Z,97540.31
2023-05-10T01:15:41.822Z,97520.31
2023-05-10T01:16:43.422Z,97534.22
2023-05-10T01:17:46.141Z,97541.94
2023-05-10T01:18:47.774Z,97533.69
2023-05-10T01:19:49.371Z,97525.69
2023-05-10T01:20:58.524Z,97533.94
2023-05-10T01:22:27.762Z,97534.25
2023-05-10T01:23:37.390Z,97547.16
2023-05-10T01:24:41.514Z,97542.28
2023-05-10T01:25:46.094Z,97545.00
2023-05-10T01:27:09.324Z,97538.81
2023-05-10T01:28:35.999Z,97527.53
2023-05-10T01:30:09.187Z,97536.69
2023-05-10T01:31:53.167Z,97528.00
2023-05-10T01:33:16.814Z,97526.09
2023-05-10T01:34:24.845Z,97518.25
2023-05-10T01:35:40.204Z,97537.00
2023-05-10T01:36:49.263Z,97539.97
2023-05-10T01:37:58.505Z,97531.50
2023-05-10T01:39:21.462Z,97536.91
2023-05-10T01:40:27.419Z,97515.69
2023-05-10T01:42:03.218Z,97527.31
2023-05-10T01:43:06.638Z,97535.44
2023-05-10T01:44:25.894Z,97532.94
2023-05-10T01:45:39.085Z,97533.41
2023-05-10T01:46:41.136Z,97527.41
2023-05-10T01:47:48.143Z,97528.38
2023-05-10T01:48:49.875Z,97533.75
2023-05-10T01:49:53.295Z,97523.41
2023-05-10T01:50:54.824Z,97530.69
2023-05-10T01:52:01.223Z,97521.94
2023-05-10T01:53:05.663Z,97532.94
2023-05-10T01:54:07.324Z,97534.50
2023-05-10T01:55:14.557Z,97532.56
2023-05-10T01:56:16.226Z,97521.72
2023-05-10T01:57:17.935Z,97533.38
2023-05-10T01:58:32.609Z,97537.97
2023-05-10T01:59:41.611Z,97528.97
2023-05-10T02:00:46.611Z,97528.69
2023-05-10T02:01:48.196Z,97529.16
2023-05-10T02:02:49.859Z,97528.56
2023-05-10T02:03:51.540Z,97535.53
2023-05-10T02:04:53.099Z,97511.91
2023-05-10T02:05:54.850Z,97540.91
2023-05-10T02:06:56.439Z,97534.34
2023-05-10T02:07:58.013Z,97540.84
2023-05-10T02:08:59.694Z,97537.00
2023-05-10T02:10:01.375Z,97533.47
2023-05-10T02:11:03.282Z,97533.97
2023-05-10T02:12:05.391Z,97525.84
2023-05-10T02:13:07.321Z,97528.53
2023-05-10T02:14:09.051Z,97534.50
2023-05-10T02:15:12.845Z,97532.59
2023-05-10T02:16:14.447Z,97523.88
2023-05-10T02:17:16.026Z,97524.75
2023-05-10T02:18:17.906Z,97512.19
2023-05-10T02:19:19.885Z,97535.44
2023-05-10T02:20:21.441Z,97526.44
2023-05-10T02:21:22.944Z,97535.31
2023-05-10T02:22:24.449Z,97542.91
2023-05-10T02:23:26.001Z,97527.94
2023-05-10T02:24:27.692Z,97530.56
2023-05-10T02:25:29.230Z,97534.63
2023-05-10T02:26:30.789Z,97534.94
2023-05-10T02:27:32.337Z,97539.22
2023-05-10T02:28:34.240Z,97528.41
2023-05-10T02:29:35.797Z,97536.50
2023-05-10T02:30:37.348Z,97536.19
2023-05-10T02:31:39.914Z,97538.88
2023-05-10T02:32:41.916Z,97543.72
2023-05-10T02:33:43.868Z,97532.50
2023-05-10T02:34:46.581Z,97524.69
2023-05-10T02:35:48.198Z,97540.31
2023-05-10T02:36:49.771Z,97552.06
2023-05-10T02:37:51.538Z,97542.75
2023-05-10T02:38:53.859Z,97540.09
2023-05-10T02:39:55.972Z,97545.50
2023-05-10T02:40:57.649Z,97547.69
2023-05-10T02:41:59.139Z,97541.94
2023-05-10T02:43:00.999Z,97546.53
2023-05-10T02:44:03.747Z,97540.16
2023-05-10T02:45:18.556Z,97531.66
2023-05-10T02:46:20.294Z,97540.03
2023-05-10T02:47:22.130Z,97538.25
2023-05-10T02:48:23.783Z,97534.41
2023-05-10T02:49:25.355Z,97543.13
2023-05-10T02:50:29.884Z,97533.75
2023-05-10T02:51:34.691Z,97526.78
2023-05-10T02:52:40.385Z,97531.84
2023-05-10T02:53:42.271Z,97537.88
2023-05-10T02:54:45.585Z,97529.25
2023-05-10T02:55:49.520Z,97523.97
2023-05-10T02:56:52.411Z,97547.28
2023-05-10T02:57:57.181Z,97539.03
2023-05-10T02:58:59.042Z,97540.53
2023-05-10T03:00:01.346Z,97528.88
2023-05-10T03:01:02.949Z,97545.81
2023-05-10T03:02:04.890Z,97533.50
2023-05-10T03:03:06.650Z,97537.78
2023-05-10T03:04:08.591Z,97558.31
2023-05-10T03:05:10.230Z,97543.50
2023-05-10T03:06:11.752Z,97539.41
2023-05-10T03:07:13.450Z,97547.03
2023-05-10T03:08:15.058Z,97548.00
2023-05-10T03:09:16.829Z,97542.25
2023-05-10T03:10:19.074Z,97550.78
2023-05-10T03:11:56.884Z,97539.34
2023-05-10T03:13:37.639Z,97546.34
2023-05-10T03:15:15.973Z,97544.94
2023-05-10T03:16:18.079Z,97545.44
2023-05-10T03:17:33.994Z,97544.50
2023-05-10T03:18:43.089Z,97541.78
2023-05-10T03:19:46.685Z,97547.53
2023-05-10T03:20:51.955Z,97552.44
2023-05-10T03:21:53.965Z,97541.78
2023-05-10T03:23:21.146Z,97548.94
2023-05-10T03:24:24.199Z,97551.59
2023-05-10T03:25:25.830Z,97553.59
2023-05-10T03:26:28.149Z,97547.63
2023-05-10T03:27:29.814Z,97545.91
2023-05-10T03:28:31.350Z,97540.38
2023-05-10T03:29:32.940Z,97555.59
2023-05-10T03:30:34.465Z,97554.19
2023-05-10T03:31:36.073Z,97542.53
2023-05-10T03:32:38.118Z,97554.03
2023-05-10T03:33:48.044Z,97554.56
2023-05-10T03:34:49.596Z,97558.03
2023-05-10T03:35:51.468Z,97564.69
2023-05-10T03:36:53.316Z,97559.53
2023-05-10T03:37:54.840Z,97556.47
2023-05-10T03:38:56.466Z,97569.50
2023-05-10T03:39:57.993Z,97558.84
2023-05-10T03:40:59.551Z,97562.81
2023-05-10T03:42:01.151Z,97571.19
2023-05-10T03:43:02.765Z,97563.81
2023-05-10T03:44:04.652Z,97548.53
2023-05-10T03:45:07.021Z,97565.84
2023-05-10T03:46:08.551Z,97567.47
2023-05-10T03:47:10.121Z,97571.03
2023-05-10T03:48:11.775Z,97560.69
2023-05-10T03:49:13.686Z,97566.44
2023-05-10T03:50:15.467Z,97528.06
2023-05-10T03:51:17.356Z,97564.81
2023-05-10T03:52:19.171Z,97572.50
2023-05-10T03:53:21.137Z,97578.13
2023-05-10T03:54:22.742Z,97560.25
2023-05-10T03:55:24.613Z,97577.59
2023-05-10T03:56:26.236Z,97574.28
2023-05-10T03:57:27.782Z,97577.00
2023-05-10T03:58:29.291Z,97582.31
2023-05-10T03:59:31.018Z,97576.53
2023-05-10T04:00:33.817Z,97573.94
2023-05-10T04:01:35.810Z,97576.81
2023-05-10T04:02:38.414Z,97574.31
2023-05-10T04:03:40.605Z,97589.47
2023-05-10T04:04:42.888Z,97591.91
2023-05-10T04:05:44.569Z,97587.81
2023-05-10T04:06:46.240Z,97572.31
2023-05-10T04:07:48.276Z,97595.38
2023-05-10T04:08:50.139Z,97576.31
2023-05-10T04:09:51.855Z,97595.84
2023-05-10T04:10:53.374Z,97585.28
2023-05-10T04:11:54.984Z,97599.88
2023-05-10T04:12:56.553Z,97597.97
2023-05-10T04:13:58.538Z,97592.59
2023-05-10T04:15:00.189Z,97601.22
2023-05-10T04:16:02.075Z,97580.16
2023-05-10T04:17:03.664Z,97599.22
2023-05-10T04:18:07.273Z,97590.69
2023-05-10T04:19:10.220Z,97597.75
2023-05-10T04:20:12.262Z,97605.41
2023-05-10T04:21:14.567Z,97606.63
2023-05-10T04:22:17.162Z,97610.44
2023-05-10T04:23:18.775Z,97613.53
2023-05-10T04:24:20.455Z,97598.41
2023-05-10T04:25:22.078Z,97592.44
2023-05-10T04:26:23.638Z,97607.81
2023-05-10T04:27:25.246Z,97603.63
2023-05-10T04:28:27.145Z,97611.06
2023-05-10T04:29:28.823Z,97610.25
2023-05-10T04:30:30.646Z,97602.63
2023-05-10T04:31:32.199Z,97603.66
2023-05-10T04:32:33.846Z,97604.94
2023-05-10T04:33:35.922Z,97610.22
2023-05-10T04:34:38.363Z,97616.91
2023-05-10T04:35:41.026Z,97596.22
2023-05-10T04:36:42.717Z,97618.09
2023-05-10T04:37:44.477Z,97612.78
2023-05-10T04:38:46.062Z,97613.06
2023-05-10T04:39:47.622Z,97621.66
2023-05-10T04:40:49.135Z,97613.97
2023-05-10T04:41:50.667Z,97614.28
2023-05-10T04:42:52.515Z,97620.34
2023-05-10T04:43:54.050Z,97620.91
2023-05-10T04:44:55.755Z,97614.13
2023-05-10T04:45:57.977Z,97610.84
2023-05-10T04:46:59.874Z,97631.19
2023-05-10T04:48:01.497Z,97622.94
2023-05-10T04:49:03.144Z,97623.81
2023-05-10T04:50:05.285Z,97623.75
2023-05-10T04:51:07.551Z,97626.94
2023-05-10T04:52:09.184Z,97623.63
2023-05-10T04:53:11.018Z,97625.25
2023-05-10T04:54:12.519Z,97617.63
2023-05-10T04:55:14.644Z,97617.91
2023-05-10T04:56:17.047Z,97638.22
2023-05-10T04:57:18.565Z,97627.22
2023-05-10T04:58:20.460Z,97635.94
2023-05-10T04:59:22.142Z,97645.69
2023-05-10T05:00:24.489Z,97637.56
2023-05-10T05:01:26.226Z,97636.59
2023-05-10T05:02:27.900Z,97632.38
2023-05-10T05:03:29.715Z,97624.56
2023-05-10T05:04:32.018Z,97638.09
2023-05-10T05:05:33.580Z,97628.09
2023-05-10T05:06:35.213Z,97649.88
2023-05-10T05:07:39.967Z,97636.88
2023-05-10T05:08:41.744Z,97647.63
2023-05-10T05:09:43.292Z,97648.13
2023-05-10T05:10:44.911Z,97644.03
2023-05-10T05:11:46.420Z,97638.31
2023-05-10T05:12:48.328Z,97636.59
2023-05-10T05:13:49.904Z,97657.91
2023-05-10T05:14:51.693Z,97652.81
2023-05-10T05:15:53.438Z,97659.28
2023-05-10T05:16:54.991Z,97645.72
2023-05-10T05:17:56.897Z,97648.03
2023-05-10T05:18:58.418Z,97661.59
2023-05-10T05:19:59.967Z,97652.72
2023-05-10T05:21:02.252Z,97673.13
2023-05-10T05:22:03.950Z,97666.38
2023-05-10T05:23:05.820Z,97673.78
2023-05-10T05:24:07.693Z,97655.69
2023-05-10T05:25:09.503Z,97661.13
2023-05-10T05:26:11.639Z,97672.47
2023-05-10T05:27:13.340Z,97663.72
2023-05-10T05:28:15.016Z,97658.88
2023-05-10T05:29:16.817Z,97662.41
2023-05-10T05:30:18.630Z,97682.19
2023-05-10T05:31:20.413Z,97655.94
2023-05-10T05:32:22.157Z,97677.38
2023-05-10T05:33:24.055Z,97678.22
2023-05-10T05:34:26.166Z,97672.13
2023-05-10T05:35:27.954Z,97662.59
2023-05-10T05:36:29.572Z,97663.31
2023-05-10T05:37:31.131Z,97628.53
2023-05-10T05:38:32.663Z,97673.56
2023-05-10T05:39:34.190Z,97646.59
2023-05-10T05:40:35.924Z,97680.28
2023-05-10T05:41:37.565Z,97669.66
2023-05-10T05:42:39.612Z,97678.47
2023-05-10T05:43:41.228Z,97672.44
2023-05-10T05:44:42.815Z,97680.84
2023-05-10T05:45:44.485Z,97675.44
2023-05-10T05:46:46.194Z,97674.00
2023-05-10T05:47:48.227Z,97675.16
2023-05-10T05:48:49.850Z,97681.72
2023-05-10T05:49:51.378Z,97676.25
2023-05-10T05:50:57.317Z,97691.59
2023-05-10T05:52:02.177Z,97678.47
2023-05-10T05:53:03.792Z,97691.13
2023-05-10T05:54:05.395Z,97687.38
2023-05-10T05:55:07.172Z,97684.66
2023-05-10T05:56:09.091Z,97694.19
2023-05-10T05:57:10.631Z,97677.06
2023-05-10T05:58:12.328Z,97690.16
2023-05-10T05:59:13.859Z,97694.50
2023-05-10T06:00:15.663Z,97690.97
2023-05-10T06:01:17.498Z,97694.75
2023-05-10T06:02:19.161Z,97696.81
2023-05-10T06:03:20.907Z,97658.53
2023-05-10T06:04:22.810Z,97689.16
2023-05-10T06:05:24.508Z,97698.41
2023-05-10T06:06:26.008Z,97688.63
2023-05-10T06:07:27.672Z,97702.44
2023-05-10T06:08:29.226Z,97697.88
2023-05-10T06:09:30.820Z,97709.91
2023-05-10T06:10:32.372Z,97706.50
2023-05-10T06:11:33.908Z,97715.41
2023-05-10T06:12:36.067Z,97708.16
2023-05-10T06:13:37.783Z,97701.69
2023-05-10T06:14:39.809Z,97698.09
2023-05-10T06:15:41.693Z,97719.91
2023-05-10T06:16:43.218Z,97698.81
2023-05-10T06:17:45.759Z,97717.22
2023-05-10T06:18:47.331Z,97720.44
2023-05-10T06:19:48.866Z,97703.56
2023-05-10T06:20:53.261Z,97713.63
2023-05-10T06:21:54.765Z,97711.97
2023-05-10T06:22:56.332Z,97720.34
2023-05-10T06:23:57.858Z,97679.09
2023-05-10T06:25:00.565Z,97722.63
2023-05-10T06:26:02.330Z,97711.75
2023-05-10T06:27:05.129Z,97722.19
2023-05-10T06:28:06.970Z,97730.06
2023-05-10T06:29:08.493Z,97732.09
2023-05-10T06:30:13.382Z,97681.84
2023-05-10T06:31:17.120Z,97729.53
2023-05-10T06:32:18.931Z,97726.72
2023-05-10T06:33:20.585Z,97724.53
2023-05-10T06:34:22.102Z,97723.22
2023-05-10T06:35:23.716Z,97726.38
2023-05-10T06:36:27.273Z,97720.44
2023-05-10T06:37:29.208Z,97736.38
2023-05-10T06:38:30.743Z,97729.78
2023-05-10T06:39:32.426Z,97730.25
2023-05-10T06:40:34.221Z,97728.06
2023-05-10T06:41:35.844Z,97716.84
2023-05-10T06:42:37.588Z,97727.63
2023-05-10T06:43:42.516Z,97732.97
2023-05-10T06:44:44.510Z,97723.44
2023-05-10T06:45:46.266Z,97717.53
2023-05-10T06:46:48.083Z,97742.56
2023-05-10T06:47:50.665Z,97733.69
2023-05-10T06:48:52.317Z,97737.38
2023-05-10T06:49:53.973Z,97734.31
2023-05-10T06:50:55.592Z,97723.00
2023-05-10T06:51:57.604Z,97742.03
2023-05-10T06:52:59.150Z,97745.38
2023-05-10T06:54:01.161Z,97735.44
2023-05-10T06:55:03.907Z,97742.63
2023-05-10T06:56:05.541Z,97737.72
2023-05-10T06:57:16.136Z,97740.00
2023-05-10T06:58:21.718Z,97732.97
2023-05-10T06:59:23.656Z,97731.72
2023-05-10T07:00:25.317Z,97734.03
2023-05-10T07:01:27.295Z,97733.38
2023-05-10T07:02:29.119Z,97734.41
2023-05-10T07:03:30.803Z,97731.81
2023-05-10T07:04:32.746Z,97733.69
2023-05-10T07:05:34.582Z,97732.56
2023-05-10T07:06:37.371Z,97735.16
2023-05-10T07:07:38.933Z,97737.66
2023-05-10T07:08:40.628Z,97719.69
2023-05-10T07:09:43.126Z,97739.31
2023-05-10T07:10:45.317Z,97731.63
2023-05-10T07:11:47.150Z,97738.09
2023-05-10T07:12:48.777Z,97731.63
2023-05-10T07:13:50.397Z,97733.59
2023-05-10T07:14:52.029Z,97743.34
2023-05-10T07:15:53.653Z,97726.44
2023-05-10T07:16:55.264Z,97739.31
2023-05-10T07:17:57.099Z,97704.03
2023-05-10T07:18:58.842Z,97723.25
2023-05-10T07:20:01.286Z,97726.75
2023-05-10T07:21:03.172Z,97721.03
2023-05-10T07:22:04.818Z,97739.06
2023-05-10T07:23:06.780Z,97738.03
2023-05-10T07:24:08.411Z,97742.84
2023-05-10T07:25:10.476Z,97744.13
2023-05-10T07:26:12.380Z,97757.72
2023-05-10T07:27:14.120Z,97751.38
2023-05-10T07:28:18.859Z,97752.47
2023-05-10T07:29:20.778Z,97743.53
2023-05-10T07:30:22.369Z,97754.84
2023-05-10T07:31:24.311Z,97748.81
2023-05-10T07:32:26.024Z,97755.38
2023-05-10T07:33:28.732Z,97760.22
2023-05-10T07:34:31.507Z,97729.31
2023-05-10T07:35:33.014Z,97761.78
2023-05-10T07:36:34.939Z,97750.47
2023-05-10T07:37:37.105Z,97752.31
2023-05-10T07:38:40.932Z,97751.28
2023-05-10T07:39:42.623Z,97759.59
2023-05-10T07:40:44.240Z,97747.59
2023-05-10T07:41:46.525Z,97763.03
2023-05-10T07:42:48.158Z,97756.16
2023-05-10T07:43:51.910Z,97753.19
2023-05-10T07:44:53.416Z,97761.78
2023-05-10T07:45:56.409Z,97755.28
2023-05-10T07:46:58.035Z,97762.16
2023-05-10T07:47:59.939Z,97735.59
2023-05-10T07:49:01.768Z,97765.19
2023-05-10T07:50:03.318Z,97755.53
2023-05-10T07:51:05.028Z,97770.28
2023-05-10T07:52:06.766Z,97774.22
2023-05-10T07:53:08.590Z,97768.31
2023-05-10T07:54:11.127Z,97773.13
2023-05-10T07:55:12.691Z,97772.81
2023-05-10T07:56:31.104Z,97774.91
2023-05-10T07:57:32.652Z,97766.50
2023-05-10T07:58:34.178Z,97767.91
2023-05-10T07:59:35.797Z,97761.84
2023-05-10T08:00:40.544Z,97763.66
2023-05-10T08:01:43.027Z,97773.75
2023-05-10T08:02:44.657Z,97761.69
2023-05-10T08:03:46.318Z,97770.91
2023-05-10T08:04:48.072Z,97772.53
2023-05-10T08:05:49.607Z,97766.72
2023-05-10T08:06:51.457Z,97767.50
2023-05-10T08:07:53.075Z,97764.03
2023-05-10T08:08:55.118Z,97776.38
2023-05-10T08:09:56.728Z,97779.41
2023-05-10T08:10:58.594Z,97768.63
2023-05-10T08:12:01.253Z,97780.41
2023-05-10T08:13:03.006Z,97784.41
2023-05-10T08:14:04.526Z,97780.53
2023-05-10T08:15:06.706Z,97769.31
2023-05-10T08:16:08.759Z,97796.94
2023-05-10T08:17:10.334Z,97786.78
2023-05-10T08:18:12.001Z,97747.38
2023-05-10T08:19:13.811Z,97780.94
2023-05-10T08:20:17.838Z,97785.38
2023-05-10T08:21:20.194Z,97796.13
2023-05-10T08:22:22.433Z,97779.53
2023-05-10T08:23:24.677Z,97762.44
2023-05-10T08:24:26.213Z,97781.97
2023-05-10T08:25:27.763Z,97787.59
2023-05-10T08:26:29.812Z,97786.94
2023-05-10T08:27:31.344Z,97791.78
2023-05-10T08:28:32.889Z,97774.13
2023-05-10T08:29:46.286Z,97769.28
2023-05-10T08:30:51.741Z,97792.13
2023-05-10T08:31:53.777Z,97792.13
2023-05-10T08:32:55.798Z,97771.13
2023-05-10T08:33:57.352Z,97783.69
2023-05-10T08:34:58.862Z,97780.66
2023-05-10T08:36:00.839Z,97787.94
2023-05-10T08:37:02.400Z,97792.56
2023-05-10T08:38:03.978Z,97789.75
2023-05-10T08:39:07.698Z,97793.25
2023-05-10T08:40:13.148Z,97780.06
2023-05-10T08:41:15.850Z,97793.00
2023-05-10T08:42:19.019Z,97780.19
2023-05-10T08:43:21.043Z,97797.72
2023-05-10T08:44:25.661Z,97790.41
2023-05-10T08:45:27.597Z,97774.03
2023-05-10T08:46:29.211Z,97781.13
2023-05-10T08:47:30.760Z,97788.59
2023-05-10T08:48:32.411Z,97792.88
2023-05-10T08:49:34.799Z,97800.28
2023-05-10T08:50:40.786Z,97786.28
2023-05-10T08:51:43.929Z,97790.78
2023-05-10T08:52:45.539Z,97789.00
2023-05-10T08:53:47.265Z,97807.44
2023-05-10T08:54:48.813Z,97808.66
2023-05-10T08:55:50.748Z,97809.13
2023-05-10T08:56:52.331Z,97809.72
2023-05-10T08:57:54.283Z,97802.41
2023-05-10T08:58:56.173Z,97810.28
2023-05-10T08:59:57.777Z,97805.50
2023-05-10T09:00:59.810Z,97795.81
2023-05-10T09:02:02.106Z,97813.78
2023-05-10T09:03:04.722Z,97797.06
2023-05-10T09:04:06.601Z,97818.75
2023-05-10T09:05:08.891Z,97818.75
2023-05-10T09:06:10.827Z,97797.25
2023-05-10T09:07:12.347Z,97814.34
2023-05-10T09:08:17.334Z,97820.94
2023-05-10T09:09:19.426Z,97808.66
2023-05-10T09:10:21.324Z,97796.56
2023-05-10T09:11:23.324Z,97814.44
2023-05-10T09:12:24.905Z,97817.56
2023-05-10T09:13:27.016Z,97810.81
2023-05-10T09:14:28.557Z,97813.69
2023-05-10T09:15:30.711Z,97791.44
2023-05-10T09:16:35.444Z,97804.91
2023-05-10T09:17:37.291Z,97811.84
2023-05-10T09:18:39.062Z,97810.75
2023-05-10T09:19:40.687Z,97807.13
2023-05-10T09:20:45.840Z,97809.50
2023-05-10T09:21:47.355Z,97802.50
2023-05-10T09:22:49.038Z,97809.38
2023-05-10T09:23:51.198Z,97801.88
2023-05-10T09:25:09.451Z,97792.75
2023-05-10T09:26:11.385Z,97805.78
2023-05-10T09:27:13.359Z,97796.81
2023-05-10T09:28:14.941Z,97802.00
2023-05-10T09:29:17.661Z,97797.63
2023-05-10T09:30:30.373Z,97791.84
2023-05-10T09:31:48.410Z,97776.94
2023-05-10T09:32:51.389Z,97803.75
2023-05-10T09:33:53.258Z,97811.38
2023-05-10T09:34:54.952Z,97808.03
2023-05-10T09:35:57.073Z,97806.91
2023-05-10T09:37:02.397Z,97799.28
2023-05-10T09:38:05.199Z,97787.59
2023-05-10T09:39:06.948Z,97807.22
2023-05-10T09:40:16.712Z,97801.63
2023-05-10T09:41:22.448Z,97805.19
2023-05-10T09:42:24.520Z,97803.94
2023-05-10T09:43:26.099Z,97804.97
2023-05-10T09:44:28.123Z,97820.19
2023-05-10T09:45:31.138Z,97793.97
2023-05-10T09:46:36.920Z,97812.06
2023-05-10T09:47:38.816Z,97811.75
2023-05-10T09:48:46.956Z,97797.06
2023-05-10T09:49:52.244Z,97787.38
2023-05-10T09:50:59.876Z,97801.53
2023-05-10T09:52:02.372Z,97804.25
2023-05-10T09:53:04.768Z,97792.97
2023-05-10T09:54:16.717Z,97800.72
2023-05-10T09:55:22.767Z,97798.16
2023-05-10T09:56:36.830Z,97813.22
2023-05-10T09:57:38.777Z,97809.38
2023-05-10T09:58:40.581Z,97820.25
2023-05-10T09:59:43.776Z,97797.41
2023-05-10T10:00:49.320Z,97820.63
2023-05-10T10:01:52.206Z,97808.75
2023-05-10T10:03:00.463Z,97812.50
2023-05-10T10:04:05.602Z,97797.69
2023-05-10T10:05:08.203Z,97802.88
2023-05-10T10:06:18.932Z,97804.88
2023-05-10T10:07:25.844Z,97784.19
2023-05-10T10:08:27.505Z,97801.91
2023-05-10T10:09:29.394Z,97799.91
2023-05-10T10:10:31.412Z,97794.22
2023-05-10T10:11:33.797Z,97782.72
2023-05-10T10:12:35.337Z,97810.84
2023-05-10T10:13:36.894Z,97801.91
2023-05-10T10:14:38.528Z,97811.19
2023-05-10T10:15:40.823Z,97797.41
2023-05-10T10:16:55.532Z,97813.44
2023-05-10T10:18:05.230Z,97793.84
2023-05-10T10:19:06.766Z,97818.09
2023-05-10T10:20:12.335Z,97779.13
2023-05-10T10:21:14.847Z,97792.53
2023-05-10T10:22:16.466Z,97788.06
2023-05-10T10:23:18.070Z,97796.06
2023-05-10T10:24:19.662Z,97803.59
2023-05-10T10:25:23.329Z,97799.91
2023-05-10T10:26:26.420Z,97794.16
2023-05-10T10:27:33.089Z,97800.38
2023-05-10T10:29:00.898Z,97794.75
2023-05-10T10:30:14.511Z,97791.50
2023-05-10T10:31:22.547Z,97805.94
2023-05-10T10:32:31.157Z,97797.34
2023-05-10T10:34:03.019Z,97787.84
2023-05-10T10:35:05.110Z,97795.31
2023-05-10T10:36:06.835Z,97793.78
2023-05-10T10:37:09.160Z,97788.94
2023-05-10T10:38:11.164Z,97791.28
2023-05-10T10:39:12.964Z,97786.59
2023-05-10T10:40:27.976Z,97793.59
2023-05-10T10:41:34.336Z,97793.25
2023-05-10T10:42:44.899Z,97791.09
2023-05-10T10:43:46.504Z,97790.50
2023-05-10T10:44:48.769Z,97790.28
2023-05-10T10:46:14.315Z,97802.91
2023-05-10T10:47:19.809Z,97800.31
2023-05-10T10:48:24.670Z,97777.84
2023-05-10T10:49:26.316Z,97791.94
2023-05-10T10:50:28.242Z,97800.34
2023-05-10T10:51:33.776Z,97782.31
2023-05-10T10:52:38.892Z,97798.22
2023-05-10T10:53:41.416Z,97796.84
2023-05-10T10:54:51.924Z,97784.72
2023-05-10T10:56:12.606Z,97798.09
2023-05-10T10:57:18.590Z,97795.50
2023-05-10T10:58:34.973Z,97786.19
2023-05-10T10:59:36.690Z,97803.84
2023-05-10T11:00:39.086Z,97784.19
2023-05-10T11:01:43.875Z,97801.56
2023-05-10T11:02:52.523Z,97778.97
2023-05-10T11:04:00.594Z,97796.00
2023-05-10T11:05:37.639Z,97803.59
2023-05-10T11:06:39.489Z,97798.13
2023-05-10T11:07:56.081Z,97793.28
2023-05-10T11:08:57.829Z,97797.75
2023-05-10T11:10:05.468Z,97786.91
2023-05-10T11:11:13.237Z,97803.84
2023-05-10T11:12:15.169Z,97796.44
2023-05-10T11:13:17.545Z,97804.34
2023-05-10T11:14:21.425Z,97809.25
2023-05-10T11:15:32.087Z,97799.38
2023-05-10T11:16:44.357Z,97807.72
2023-05-10T11:17:48.414Z,97804.34
2023-05-10T11:19:00.986Z,97804.56
2023-05-10T11:20:10.198Z,97800.47
2023-05-10T11:21:11.907Z,97800.94
2023-05-10T11:22:14.912Z,97788.41
2023-05-10T11:23:19.735Z,97806.59
2023-05-10T11:24:28.966Z,97795.81
2023-05-10T11:25:30.980Z,97802.63
2023-05-10T11:26:33.625Z,97797.06
2023-05-10T11:27:38.875Z,97801.13
2023-05-10T11:28:47.130Z,97806.31
2023-05-10T11:29:52.590Z,97797.47
2023-05-10T11:30:54.164Z,97810.34
2023-05-10T11:31:58.752Z,97803.03
2023-05-10T11:33:00.361Z,97806.59
2023-05-10T11:34:02.883Z,97779.19
2023-05-10T11:35:14.272Z,97802.22
2023-05-10T11:36:16.752Z,97806.19
2023-05-10T11:37:19.160Z,97776.31
2023-05-10T11:38:22.035Z,97799.88
2023-05-10T11:39:35.174Z,97809.44
2023-05-10T11:40:36.984Z,97802.63
2023-05-10T11:41:39.666Z,97805.97
2023-05-10T11:42:42.509Z,97809.66
2023-05-10T11:43:44.145Z,97802.94
2023-05-10T11:44:46.815Z,97809.03
2023-05-10T11:45:48.801Z,97810.84
2023-05-10T11:46:50.804Z,97809.63
2023-05-10T11:47:52.969Z,97816.75
2023-05-10T11:48:58.850Z,97808.00
2023-05-10T11:50:01.075Z,97814.63
2023-05-10T11:51:06.181Z,97810.34
2023-05-10T11:52:08.185Z,97813.22
2023-05-10T11:53:10.267Z,97816.63
2023-05-10T11:54:12.134Z,97822.50
2023-05-10T11:55:13.704Z,97803.09
2023-05-10T11:56:15.552Z,97818.84
2023-05-10T11:57:17.842Z,97817.94
2023-05-10T11:58:19.699Z,97820.81
2023-05-10T11:59:21.244Z,97797.00
2023-05-10T12:00:22.839Z,97820.59
2023-05-10T12:01:25.356Z,97810.75
2023-05-10T12:02:26.989Z,97811.88
2023-05-10T12:03:29.221Z,97820.41
2023-05-10T12:04:31.257Z,97815.81
2023-05-10T12:05:35.216Z,97827.91
2023-05-10T12:06:41.409Z,97819.81
2023-05-10T12:07:43.258Z,97825.63
2023-05-10T12:08:48.637Z,97811.44
2023-05-10T12:10:13.781Z,97820.28
2023-05-10T12:11:16.589Z,97821.38
2023-05-10T12:12:18.432Z,97819.44
2023-05-10T12:13:20.471Z,97824.63
2023-05-10T12:14:23.331Z,97813.09
2023-05-10T12:15:25.076Z,97827.06
2023-05-10T12:16:28.252Z,97822.00
2023-05-10T12:17:30.227Z,97808.00
2023-05-10T12:18:31.818Z,97824.47
2023-05-10T12:19:40.352Z,97817.00
2023-05-10T12:20:41.977Z,97826.59
2023-05-10T12:21:43.599Z,97819.88
2023-05-10T12:22:52.064Z,97825.22
2023-05-10T12:23:54.694Z,97825.72
2023-05-10T12:24:56.658Z,97816.25
2023-05-10T12:26:03.840Z,97809.31
2023-05-10T12:27:11.797Z,97817.31